Time;durP1;ratioP1;P1;durP2;ratioP2;P2;SDS_P1;SDS_P2;PMS_P1;PMS_P2;Temp;Humidity;BMP_temperature;BMP_pressure;BME280_temperature;BME280_humidity;BME280_pressure;Samples;Min_cycle;Max_cycle;Signal;HPM_P1;HPM_P2
2024/01/11 00:00:48;;;;;;;41.17;21.50;;;;;;;;;;5028553;28;20482;-79
2024/01/11 00:03:15;;;;;;;35.10;19.67;;;;;;;;;;5029398;28;20805;-79
2024/01/11 00:05:41;;;;;;;38.30;21.90;;;;;;;;;;5006295;28;20301;-79
2024/01/11 00:08:08;;;;;;;33.97;19.37;;;;;;;;;;5024045;28;20189;-79
2024/01/11 00:10:34;;;;;;;39.37;21.27;;;;;;;;;;5011466;28;20587;-78
2024/01/11 00:13:00;;;;;;;34.23;19.30;;;;;;;;;;5032118;28;20457;-78
2024/01/11 00:15:26;;;;;;;35.27;20.07;;;;;;;;;;5022255;28;20580;-78
2024/01/11 00:17:53;;;;;;;41.50;24.13;;;;;;;;;;5022187;28;20565;-78
2024/01/11 00:20:19;;;;;;;36.53;19.97;;;;;;;;;;5022380;28;20274;-78
2024/01/11 00:22:45;;;;;;;43.80;23.13;;;;;;;;;;5028712;28;20222;-78
2024/01/11 00:25:11;;;;;;;38.33;21.77;;;;;;;;;;5018297;28;20977;-78
2024/01/11 00:27:37;;;;;;;36.67;19.80;;;;;;;;;;5023185;28;20429;-78
2024/01/11 00:30:04;;;;;;;38.83;20.43;;;;;;;;;;5010151;28;20201;-78
2024/01/11 00:32:30;;;;;;;41.07;19.77;;;;;;;;;;5022453;28;20175;-78
2024/01/11 00:34:56;;;;;;;38.37;19.83;;;;;;;;;;5023747;28;20215;-78
2024/01/11 00:37:23;;;;;;;36.73;19.83;;;;;;;;;;5023945;28;20532;-78
2024/01/11 00:39:49;;;;;;;35.90;20.13;;;;;;;;;;5022184;28;20189;-78
2024/01/11 00:42:15;;;;;;;38.37;19.67;;;;;;;;;;5027979;28;20418;-78
2024/01/11 00:44:41;;;;;;;34.17;17.97;;;;;;;;;;5027676;28;20198;-78
2024/01/11 00:47:07;;;;;;;36.53;19.67;;;;;;;;;;5025205;28;20432;-78
2024/01/11 00:49:33;;;;;;;37.53;19.40;;;;;;;;;;5015890;28;20878;-78
2024/01/11 00:51:59;;;;;;;39.03;21.13;;;;;;;;;;5027725;28;20186;-78
2024/01/11 00:54:25;;;;;;;36.60;21.07;;;;;;;;;;5018534;28;20464;-78
2024/01/11 00:56:52;;;;;;;34.80;18.33;;;;;;;;;;5020829;28;20240;-78
2024/01/11 00:59:18;;;;;;;38.37;20.60;;;;;;;;;;5027725;28;20256;-79
2024/01/11 01:01:48;;;;;;;31.27;17.93;;;;;;;;;;5024113;28;20447;-78
2024/01/11 01:04:14;;;;;;;32.80;17.63;;;;;;;;;;5024628;28;20603;-79
2024/01/11 01:06:42;;;;;;;39.87;21.70;;;;;;;;;;5025390;28;20229;-79
2024/01/11 01:09:08;;;;;;;35.57;19.57;;;;;;;;;;5022969;28;20273;-79
2024/01/11 01:11:34;;;;;;;38.87;20.07;;;;;;;;;;5023257;28;20186;-79
2024/01/11 01:14:00;;;;;;;34.97;18.87;;;;;;;;;;5005979;28;20446;-79
2024/01/11 01:16:26;;;;;;;37.40;19.53;;;;;;;;;;5022438;28;20476;-79
2024/01/11 01:18:52;;;;;;;40.07;22.23;;;;;;;;;;5026358;28;20951;-79
2024/01/11 01:21:19;;;;;;;40.23;20.53;;;;;;;;;;5026071;28;20191;-79
2024/01/11 01:23:45;;;;;;;34.13;19.53;;;;;;;;;;5028780;28;20437;-79
2024/01/11 01:26:11;;;;;;;36.90;19.17;;;;;;;;;;5022767;28;20727;-79
2024/01/11 01:28:37;;;;;;;36.80;21.20;;;;;;;;;;5027245;28;20436;-79
2024/01/11 01:31:03;;;;;;;38.67;20.20;;;;;;;;;;5030543;28;20643;-79
2024/01/11 01:33:29;;;;;;;36.10;19.90;;;;;;;;;;5028996;28;20448;-79
2024/01/11 01:35:55;;;;;;;42.47;21.03;;;;;;;;;;5025879;28;20994;-79
2024/01/11 01:38:22;;;;;;;38.93;20.53;;;;;;;;;;5027519;28;20504;-79
2024/01/11 01:40:48;;;;;;;34.77;18.27;;;;;;;;;;5025228;28;20421;-79
2024/01/11 01:43:14;;;;;;;38.47;20.30;;;;;;;;;;5029069;28;20452;-79
2024/01/11 01:45:40;;;;;;;34.03;20.03;;;;;;;;;;5030426;28;20483;-79
2024/01/11 01:48:07;;;;;;;44.07;21.47;;;;;;;;;;5023531;28;20195;-79
2024/01/11 01:50:33;;;;;;;44.10;23.43;;;;;;;;;;5026561;28;20663;-78
2024/01/11 01:53:00;;;;;;;44.00;23.77;;;;;;;;;;5029721;28;20460;-79
2024/01/11 01:55:28;;;;;;;40.17;21.50;;;;;;;;;;5028474;28;21036;-79
2024/01/11 01:57:55;;;;;;;36.00;20.50;;;;;;;;;;5024878;28;20440;-79
2024/01/11 02:00:21;;;;;;;51.03;25.30;;;;;;;;;;5025953;28;20469;-79
2024/01/11 02:02:50;;;;;;;46.67;24.40;;;;;;;;;;5029807;28;20202;-79
2024/01/11 02:05:17;;;;;;;44.40;22.77;;;;;;;;;;4996145;28;20528;-79
2024/01/11 02:07:44;;;;;;;43.53;22.07;;;;;;;;;;5027996;28;20445;-79
2024/01/11 02:10:10;;;;;;;42.97;20.93;;;;;;;;;;5030003;28;20434;-79
2024/01/11 02:12:37;;;;;;;41.80;22.70;;;;;;;;;;5019427;28;20193;-78
2024/01/11 02:15:03;;;;;;;44.80;22.83;;;;;;;;;;5026761;28;20953;-79
2024/01/11 02:17:31;;;;;;;40.40;21.90;;;;;;;;;;5023547;28;20441;-78
2024/01/11 02:19:57;;;;;;;40.50;20.80;;;;;;;;;;5026360;28;20894;-79
2024/01/11 02:22:30;;;;;;;36.43;19.57;;;;;;;;;;5026756;28;20602;-79
2024/01/11 02:24:57;;;;;;;42.53;22.13;;;;;;;;;;5034666;28;20511;-79
2024/01/11 02:27:23;;;;;;;39.80;20.73;;;;;;;;;;5020223;28;20512;-79
2024/01/11 02:29:50;;;;;;;39.33;21.03;;;;;;;;;;5015300;28;20441;-78
2024/01/11 02:32:16;;;;;;;36.87;20.33;;;;;;;;;;5014556;28;20891;-79
2024/01/11 02:34:42;;;;;;;40.50;21.80;;;;;;;;;;5031166;28;20630;-78
2024/01/11 02:37:08;;;;;;;35.27;18.63;;;;;;;;;;5028888;28;20417;-79
2024/01/11 02:39:34;;;;;;;37.63;19.87;;;;;;;;;;5028755;28;20961;-79
2024/01/11 02:42:01;;;;;;;32.27;16.90;;;;;;;;;;5030645;28;20516;-79
2024/01/11 02:44:28;;;;;;;33.93;18.30;;;;;;;;;;5018596;28;20503;-79
2024/01/11 02:46:54;;;;;;;29.13;17.50;;;;;;;;;;5025227;28;20189;-79
2024/01/11 02:49:20;;;;;;;36.00;18.93;;;;;;;;;;5026468;28;21067;-79
2024/01/11 02:51:46;;;;;;;33.27;18.00;;;;;;;;;;5033105;28;20949;-79
2024/01/11 02:54:12;;;;;;;36.33;19.10;;;;;;;;;;5025150;28;20489;-79
2024/01/11 02:56:38;;;;;;;33.83;19.60;;;;;;;;;;5025744;28;20575;-79
2024/01/11 02:59:04;;;;;;;35.10;18.40;;;;;;;;;;4996878;28;20426;-79
2024/01/11 03:01:32;;;;;;;29.40;16.57;;;;;;;;;;5016213;28;20458;-79
2024/01/11 03:03:58;;;;;;;30.57;17.13;;;;;;;;;;5023398;28;20538;-79
2024/01/11 03:06:24;;;;;;;33.63;17.90;;;;;;;;;;5026052;28;20521;-79
2024/01/11 03:08:51;;;;;;;31.67;17.90;;;;;;;;;;5021754;28;20441;-79
2024/01/11 03:11:17;;;;;;;32.87;17.07;;;;;;;;;;5006009;28;20437;-79
2024/01/11 03:13:43;;;;;;;37.90;20.00;;;;;;;;;;5023432;28;20448;-79
2024/01/11 03:16:09;;;;;;;36.03;19.03;;;;;;;;;;5023957;28;20540;-78
2024/01/11 03:18:35;;;;;;;35.60;18.83;;;;;;;;;;5028419;28;20967;-79
2024/01/11 03:21:02;;;;;;;34.17;18.53;;;;;;;;;;5023870;28;20503;-79
2024/01/11 03:23:28;;;;;;;30.30;17.20;;;;;;;;;;5028169;28;20542;-79
2024/01/11 03:25:54;;;;;;;36.57;18.13;;;;;;;;;;5027493;28;20190;-79
2024/01/11 03:28:20;;;;;;;32.40;18.03;;;;;;;;;;5008236;28;20918;-79
2024/01/11 03:30:46;;;;;;;32.37;17.87;;;;;;;;;;5025154;28;20544;-79
2024/01/11 03:33:12;;;;;;;33.47;17.77;;;;;;;;;;5026923;28;20518;-79
2024/01/11 03:35:40;;;;;;;37.73;19.97;;;;;;;;;;5025849;28;20228;-79
2024/01/11 03:38:06;;;;;;;35.33;19.03;;;;;;;;;;5020968;28;20433;-79
2024/01/11 03:40:32;;;;;;;28.93;15.37;;;;;;;;;;5024425;28;20494;-79
2024/01/11 03:42:59;;;;;;;30.00;16.73;;;;;;;;;;5029467;28;20819;-78
2024/01/11 03:45:25;;;;;;;33.27;17.23;;;;;;;;;;5028439;28;20905;-79
2024/01/11 03:47:51;;;;;;;36.60;20.07;;;;;;;;;;5022544;28;21017;-79
2024/01/11 03:50:18;;;;;;;31.87;17.30;;;;;;;;;;5026523;28;20484;-79
2024/01/11 03:52:45;;;;;;;28.87;16.00;;;;;;;;;;5026505;28;20503;-79
2024/01/11 03:55:11;;;;;;;34.53;17.87;;;;;;;;;;5019786;28;20567;-79
2024/01/11 03:57:37;;;;;;;34.77;19.00;;;;;;;;;;5009564;28;20487;-79
2024/01/11 04:00:04;;;;;;;33.53;16.90;;;;;;;;;;5023395;28;20434;-79
2024/01/11 04:02:31;;;;;;;30.27;16.63;;;;;;;;;;5014205;28;20951;-79
2024/01/11 04:04:57;;;;;;;28.97;16.60;;;;;;;;;;5024939;28;20466;-79
2024/01/11 04:07:24;;;;;;;33.33;17.70;;;;;;;;;;5029545;28;20495;-79
2024/01/11 04:09:50;;;;;;;32.63;17.40;;;;;;;;;;5027668;28;20516;-79
2024/01/11 04:12:16;;;;;;;36.53;21.15;;;;;;;;;;5025960;28;20905;-79
2024/01/11 04:14:42;;;;;;;37.77;20.03;;;;;;;;;;5027813;28;20203;-79
2024/01/11 04:17:08;;;;;;;36.90;18.43;;;;;;;;;;5024141;28;20464;-79
2024/01/11 04:19:34;;;;;;;38.07;19.10;;;;;;;;;;4989705;28;20470;-79
2024/01/11 04:22:01;;;;;;;37.43;21.27;;;;;;;;;;5022667;28;20422;-79
2024/01/11 04:24:27;;;;;;;38.90;19.80;;;;;;;;;;5022080;28;20452;-79
2024/01/11 04:26:53;;;;;;;33.83;18.70;;;;;;;;;;5010286;28;20457;-78
2024/01/11 04:29:19;;;;;;;32.90;18.03;;;;;;;;;;5027835;28;20807;-79
2024/01/11 04:31:45;;;;;;;32.87;17.77;;;;;;;;;;5024300;28;20448;-79
2024/01/11 04:34:11;;;;;;;36.37;19.20;;;;;;;;;;5018156;28;20534;-78
2024/01/11 04:36:41;;;;;;;33.33;17.10;;;;;;;;;;5028838;28;20839;-79
2024/01/11 04:39:07;;;;;;;35.33;18.80;;;;;;;;;;5021935;28;20574;-79
2024/01/11 04:41:36;;;;;;;35.93;19.57;;;;;;;;;;5027007;28;20425;-79
2024/01/11 04:44:03;;;;;;;33.70;17.23;;;;;;;;;;5030396;28;20568;-79
2024/01/11 04:46:29;;;;;;;35.97;19.33;;;;;;;;;;5029232;28;20448;-79
2024/01/11 04:48:55;;;;;;;37.30;19.43;;;;;;;;;;5024644;28;20807;-79
2024/01/11 04:51:22;;;;;;;40.60;22.40;;;;;;;;;;5028617;28;20444;-79
2024/01/11 04:53:48;;;;;;;35.83;19.53;;;;;;;;;;5024419;28;20519;-79
2024/01/11 04:56:14;;;;;;;39.33;21.37;;;;;;;;;;5022551;28;20473;-79
2024/01/11 04:58:41;;;;;;;35.10;18.83;;;;;;;;;;5005121;28;20438;-79
2024/01/11 05:01:08;;;;;;;38.93;20.27;;;;;;;;;;5026858;28;20547;-79
2024/01/11 05:03:34;;;;;;;36.73;18.70;;;;;;;;;;5024043;28;20824;-79
2024/01/11 05:06:00;;;;;;;38.03;19.07;;;;;;;;;;5032445;28;20964;-79
2024/01/11 05:08:27;;;;;;;33.93;18.07;;;;;;;;;;5019573;28;20524;-79
2024/01/11 05:10:53;;;;;;;34.87;18.43;;;;;;;;;;5027121;28;20441;-79
2024/01/11 05:13:20;;;;;;;34.53;20.70;;;;;;;;;;5022523;28;20458;-78
2024/01/11 05:15:46;;;;;;;36.80;20.83;;;;;;;;;;5010111;28;20217;-79
2024/01/11 05:18:12;;;;;;;33.00;19.07;;;;;;;;;;5026277;28;20511;-79
2024/01/11 05:20:39;;;;;;;35.60;18.67;;;;;;;;;;5031394;28;20794;-78
2024/01/11 05:23:05;;;;;;;33.83;18.00;;;;;;;;;;5031873;28;20568;-79
2024/01/11 05:25:34;;;;;;;38.63;19.77;;;;;;;;;;5030701;28;20983;-79
2024/01/11 05:28:01;;;;;;;36.10;18.83;;;;;;;;;;5025611;28;20486;-79
2024/01/11 05:30:27;;;;;;;42.83;22.43;;;;;;;;;;5030905;28;21091;-79
2024/01/11 05:32:54;;;;;;;41.77;23.23;;;;;;;;;;5026213;28;20461;-79
2024/01/11 05:35:20;;;;;;;40.93;22.30;;;;;;;;;;5013396;28;20691;-79
2024/01/11 05:37:46;;;;;;;39.07;20.23;;;;;;;;;;5028380;28;20194;-78
2024/01/11 05:40:13;;;;;;;39.20;20.93;;;;;;;;;;5022464;28;20446;-79
2024/01/11 05:42:39;;;;;;;41.13;19.97;;;;;;;;;;5019902;28;20425;-79
2024/01/11 05:45:06;;;;;;;39.17;20.47;;;;;;;;;;5017394;28;20422;-79
2024/01/11 05:47:32;;;;;;;39.43;20.90;;;;;;;;;;5022776;28;20446;-78
2024/01/11 05:49:58;;;;;;;36.37;19.77;;;;;;;;;;5025702;28;20456;-79
2024/01/11 05:52:24;;;;;;;45.37;21.53;;;;;;;;;;5029946;28;20571;-78
2024/01/11 05:54:51;;;;;;;40.80;21.70;;;;;;;;;;5019932;28;20971;-78
2024/01/11 05:57:17;;;;;;;50.43;26.27;;;;;;;;;;5005764;28;20490;-78
2024/01/11 05:59:46;;;;;;;44.80;22.87;;;;;;;;;;5024925;28;20444;-78
2024/01/11 06:02:13;;;;;;;40.63;23.52;;;;;;;;;;5002858;28;20433;-78
2024/01/11 06:04:39;;;;;;;43.67;23.03;;;;;;;;;;5021609;28;20834;-78
2024/01/11 06:07:06;;;;;;;49.67;26.77;;;;;;;;;;5027308;28;20447;-78
2024/01/11 06:09:32;;;;;;;41.97;21.80;;;;;;;;;;5029924;28;20444;-78
2024/01/11 06:11:59;;;;;;;48.90;24.60;;;;;;;;;;5010136;28;20432;-78
2024/01/11 06:14:25;;;;;;;43.47;23.43;;;;;;;;;;5030150;28;20543;-77
2024/01/11 06:16:51;;;;;;;45.33;23.33;;;;;;;;;;5027015;28;20837;-77
2024/01/11 06:19:17;;;;;;;47.33;26.10;;;;;;;;;;5025465;28;20426;-80
2024/01/11 06:21:43;;;;;;;41.93;23.40;;;;;;;;;;5030488;28;20469;-80
2024/01/11 06:24:10;;;;;;;43.73;23.40;;;;;;;;;;5027858;28;20819;-77
2024/01/11 06:26:36;;;;;;;40.67;22.83;;;;;;;;;;5028849;28;20441;-78
2024/01/11 06:29:02;;;;;;;45.13;26.17;;;;;;;;;;5003258;28;20439;-76
2024/01/11 06:31:28;;;;;;;45.27;25.67;;;;;;;;;;5025946;28;20198;-78
2024/01/11 06:33:54;;;;;;;47.67;25.77;;;;;;;;;;5027997;28;20453;-78
2024/01/11 06:36:20;;;;;;;43.83;27.20;;;;;;;;;;5028566;28;20506;-79
2024/01/11 06:38:46;;;;;;;43.57;25.17;;;;;;;;;;5035532;28;20210;-79
2024/01/11 06:41:13;;;;;;;46.67;24.07;;;;;;;;;;5029389;28;20459;-78
2024/01/11 06:43:39;;;;;;;45.27;23.83;;;;;;;;;;5034305;28;20934;-78
2024/01/11 06:46:05;;;;;;;50.40;24.93;;;;;;;;;;5015437;28;20480;-77
2024/01/11 06:48:32;;;;;;;50.10;25.03;;;;;;;;;;5042795;28;20476;-79
2024/01/11 06:50:58;;;;;;;47.67;25.83;;;;;;;;;;5046442;28;20441;-80
2024/01/11 06:53:24;;;;;;;45.23;24.27;;;;;;;;;;5045776;28;20465;-80
2024/01/11 06:55:52;;;;;;;39.77;22.10;;;;;;;;;;5039248;28;20473;-81
2024/01/11 06:58:18;;;;;;;45.93;24.93;;;;;;;;;;5036154;28;20750;-81
2024/01/11 07:00:44;;;;;;;39.37;21.43;;;;;;;;;;5023165;28;20457;-80
2024/01/11 07:03:10;;;;;;;47.93;24.57;;;;;;;;;;5031612;28;20475;-81
2024/01/11 07:05:37;;;;;;;45.65;26.27;;;;;;;;;;5036909;28;20511;-81
2024/01/11 07:08:04;;;;;;;48.35;29.27;;;;;;;;;;5035365;28;20437;-81
2024/01/11 07:10:30;;;;;;;44.93;23.90;;;;;;;;;;5018043;28;20198;-81
2024/01/11 07:12:56;;;;;;;46.67;25.87;;;;;;;;;;5031743;28;20457;-80
2024/01/11 07:15:23;;;;;;;49.50;26.17;;;;;;;;;;5019025;28;20476;-81
2024/01/11 07:17:49;;;;;;;49.17;25.93;;;;;;;;;;5028958;28;20955;-81
2024/01/11 07:20:17;;;;;;;57.03;28.73;;;;;;;;;;4995596;28;20508;-80
2024/01/11 07:22:43;;;;;;;48.20;24.90;;;;;;;;;;5032274;28;20433;-80
2024/01/11 07:25:09;;;;;;;43.63;25.03;;;;;;;;;;5032577;28;20438;-80
2024/01/11 07:27:36;;;;;;;54.30;26.53;;;;;;;;;;5035206;28;20947;-80
2024/01/11 07:30:03;;;;;;;49.00;25.87;;;;;;;;;;5033860;28;20429;-80
2024/01/11 07:32:29;;;;;;;51.43;26.53;;;;;;;;;;5033769;28;20440;-80
2024/01/11 07:34:55;;;;;;;53.10;27.07;;;;;;;;;;5015845;28;20469;-81
2024/01/11 07:37:21;;;;;;;52.07;25.80;;;;;;;;;;5031263;28;20535;-81
2024/01/11 07:39:47;;;;;;;47.77;25.73;;;;;;;;;;5010646;28;20434;-81
2024/01/11 07:42:16;;;;;;;50.57;26.50;;;;;;;;;;5042233;28;20516;-80
2024/01/11 07:44:42;;;;;;;44.87;23.73;;;;;;;;;;5035803;28;20450;-78
2024/01/11 07:47:08;;;;;;;47.50;25.23;;;;;;;;;;5036741;28;20449;-77
2024/01/11 07:49:34;;;;;;;49.10;26.50;;;;;;;;;;5026593;28;20462;-79
2024/01/11 07:52:00;;;;;;;54.03;28.50;;;;;;;;;;5046724;28;20790;-78
2024/01/11 07:54:26;;;;;;;51.33;26.67;;;;;;;;;;5040240;28;20441;-79
2024/01/11 07:56:52;;;;;;;53.83;26.33;;;;;;;;;;5034994;28;20499;-79
2024/01/11 07:59:18;;;;;;;48.03;25.17;;;;;;;;;;5035044;28;20447;-79
2024/01/11 08:01:45;;;;;;;46.27;24.40;;;;;;;;;;5032127;28;20461;-79
2024/01/11 08:04:11;;;;;;;46.93;23.47;;;;;;;;;;5028845;28;20450;-79
2024/01/11 08:06:37;;;;;;;46.53;25.93;;;;;;;;;;5025194;28;20429;-79
2024/01/11 08:09:04;;;;;;;56.30;27.80;;;;;;;;;;5022336;28;20437;-79
2024/01/11 08:11:32;;;;;;;55.13;28.13;;;;;;;;;;5029975;28;21221;-79
2024/01/11 08:13:58;;;;;;;48.20;25.67;;;;;;;;;;4993865;28;20462;-79
2024/01/11 08:16:24;;;;;;;51.23;27.67;;;;;;;;;;4975766;28;20500;-79
2024/01/11 08:18:51;;;;;;;53.43;25.70;;;;;;;;;;5026246;28;20418;-79
2024/01/11 08:21:17;;;;;;;57.20;26.37;;;;;;;;;;4970775;28;20430;-79
2024/01/11 08:23:44;;;;;;;49.90;25.63;;;;;;;;;;4987722;28;20449;-79
2024/01/11 08:26:12;;;;;;;49.83;24.63;;;;;;;;;;4970374;28;20921;-79
2024/01/11 08:28:39;;;;;;;49.93;24.80;;;;;;;;;;4992692;28;20430;-79
2024/01/11 08:31:05;;;;;;;47.70;26.03;;;;;;;;;;5030884;28;20443;-79
2024/01/11 08:33:31;;;;;;;47.10;25.10;;;;;;;;;;4993712;28;20568;-79
2024/01/11 08:35:57;;;;;;;51.80;27.63;;;;;;;;;;4996124;28;20496;-79
2024/01/11 08:38:24;;;;;;;55.13;27.33;;;;;;;;;;4994230;28;20424;-79
2024/01/11 08:40:50;;;;;;;49.87;26.43;;;;;;;;;;5010558;28;20451;-79
2024/01/11 08:43:17;;;;;;;55.67;29.37;;;;;;;;;;5005233;28;20444;-79
2024/01/11 08:45:49;;;;;;;55.00;26.80;;;;;;;;;;5029628;28;20430;-79
2024/01/11 08:48:15;;;;;;;46.37;25.60;;;;;;;;;;4994405;28;20940;-79
2024/01/11 08:50:42;;;;;;;45.60;25.23;;;;;;;;;;4979576;28;20424;-79
2024/01/11 08:53:08;;;;;;;49.43;26.33;;;;;;;;;;4996274;28;20455;-77
2024/01/11 08:55:34;;;;;;;48.87;27.33;;;;;;;;;;4995154;28;20461;-79
2024/01/11 08:58:00;;;;;;;48.60;26.40;;;;;;;;;;5001452;28;20504;-79
2024/01/11 09:00:27;;;;;;;49.77;25.50;;;;;;;;;;4984094;28;21192;-78
2024/01/11 09:02:53;;;;;;;44.13;24.20;;;;;;;;;;4994417;28;20452;-79
2024/01/11 09:05:19;;;;;;;52.00;26.03;;;;;;;;;;4999826;28;20428;-79
2024/01/11 09:07:45;;;;;;;53.83;26.30;;;;;;;;;;4982460;28;20485;-79
2024/01/11 09:10:12;;;;;;;52.03;27.40;;;;;;;;;;4998407;28;20428;-78
2024/01/11 09:12:38;;;;;;;51.83;28.17;;;;;;;;;;5028873;28;20440;-79
2024/01/11 09:15:04;;;;;;;49.50;26.87;;;;;;;;;;4998457;28;21105;-79
2024/01/11 09:17:31;;;;;;;52.63;28.53;;;;;;;;;;5022185;28;20505;-78
2024/01/11 09:19:57;;;;;;;52.10;28.27;;;;;;;;;;4993788;28;20445;-79
2024/01/11 09:22:23;;;;;;;55.20;29.13;;;;;;;;;;4996017;28;20907;-79
2024/01/11 09:24:49;;;;;;;52.10;26.83;;;;;;;;;;5031001;28;20457;-78
2024/01/11 09:27:16;;;;;;;57.00;28.47;;;;;;;;;;4995677;28;20444;-77
2024/01/11 09:29:45;;;;;;;49.90;26.50;;;;;;;;;;5001744;28;20487;-79
2024/01/11 09:32:13;;;;;;;53.43;27.97;;;;;;;;;;4998521;28;20494;-79
2024/01/11 09:34:39;;;;;;;53.07;27.87;;;;;;;;;;5014578;28;20497;-79
2024/01/11 09:37:06;;;;;;;54.23;29.20;;;;;;;;;;5029452;28;21055;-78
2024/01/11 09:39:32;;;;;;;56.40;29.43;;;;;;;;;;5028208;28;20440;-78
2024/01/11 09:42:16;;;;;;;51.13;28.33;;;;;;;;;;5012510;28;20286;-79
2024/01/11 09:44:43;;;;;;;52.97;27.70;;;;;;;;;;5021978;28;20453;-79
2024/01/11 09:47:10;;;;;;;54.20;29.10;;;;;;;;;;5020010;28;20954;-79
2024/01/11 09:49:40;;;;;;;55.50;30.17;;;;;;;;;;5036750;28;20429;-79
2024/01/11 09:52:09;;;;;;;62.73;31.10;;;;;;;;;;5036419;28;20420;-77
2024/01/11 09:54:35;;;;;;;55.67;29.13;;;;;;;;;;5022584;28;20521;-79
2024/01/11 09:57:03;;;;;;;60.93;31.57;;;;;;;;;;5009340;28;20488;-79
2024/01/11 09:59:29;;;;;;;59.77;32.77;;;;;;;;;;5010230;28;20471;-79
2024/01/11 10:01:55;;;;;;;54.90;29.30;;;;;;;;;;4968516;28;20457;-79
2024/01/11 10:04:21;;;;;;;58.97;31.40;;;;;;;;;;5004555;28;20457;-79
2024/01/11 10:06:50;;;;;;;58.33;31.70;;;;;;;;;;5040604;28;20221;-79
2024/01/11 10:09:17;;;;;;;61.33;31.07;;;;;;;;;;5005233;28;20520;-79
2024/01/11 10:11:43;;;;;;;60.90;30.53;;;;;;;;;;4990036;28;20191;-79
2024/01/11 10:14:11;;;;;;;55.10;28.80;;;;;;;;;;5003773;28;20582;-79
2024/01/11 10:16:37;;;;;;;54.20;29.40;;;;;;;;;;5005251;28;20536;-79
2024/01/11 10:19:03;;;;;;;54.13;30.27;;;;;;;;;;5041611;28;21102;-79
2024/01/11 10:21:30;;;;;;;53.00;27.03;;;;;;;;;;5000561;28;20190;-79
2024/01/11 10:23:59;;;;;;;48.60;26.67;;;;;;;;;;5005897;28;20213;-79
2024/01/11 10:26:25;;;;;;;52.23;28.13;;;;;;;;;;4997735;28;20273;-79
2024/01/11 10:28:51;;;;;;;58.17;30.67;;;;;;;;;;4981034;28;20194;-79
2024/01/11 10:31:18;;;;;;;57.27;31.77;;;;;;;;;;5004499;28;20198;-79
2024/01/11 10:33:45;;;;;;;57.13;30.53;;;;;;;;;;5035027;28;20202;-79
2024/01/11 10:36:12;;;;;;;60.23;31.50;;;;;;;;;;5007928;28;20210;-79
2024/01/11 10:38:39;;;;;;;58.60;30.00;;;;;;;;;;5004381;28;20189;-80
2024/01/11 10:41:06;;;;;;;52.20;29.47;;;;;;;;;;4998149;28;20433;-80
2024/01/11 10:43:34;;;;;;;54.93;29.37;;;;;;;;;;5000327;28;20449;-80
2024/01/11 10:46:04;;;;;;;61.43;32.83;;;;;;;;;;5016680;28;20190;-79
2024/01/11 10:48:32;;;;;;;55.03;31.03;;;;;;;;;;5002178;28;20681;-79
2024/01/11 10:51:00;;;;;;;55.13;29.77;;;;;;;;;;5003570;28;20520;-79
2024/01/11 10:53:45;;;;;;;52.33;28.90;;;;;;;;;;5005848;28;20646;-80
2024/01/11 10:56:12;;;;;;;58.57;30.67;;;;;;;;;;5004486;28;20497;-79
2024/01/11 10:58:40;;;;;;;59.37;29.60;;;;;;;;;;5005987;28;20190;-79
2024/01/11 11:01:06;;;;;;;60.83;32.07;;;;;;;;;;5036484;28;20305;-80
2024/01/11 11:03:33;;;;;;;60.50;33.17;;;;;;;;;;5006300;28;20207;-79
2024/01/11 11:06:00;;;;;;;59.10;31.47;;;;;;;;;;5003625;28;20189;-79
2024/01/11 11:08:27;;;;;;;59.73;31.50;;;;;;;;;;5000515;28;20403;-80
2024/01/11 11:10:57;;;;;;;63.53;32.43;;;;;;;;;;4999328;28;20191;-80
2024/01/11 11:13:24;;;;;;;59.20;31.43;;;;;;;;;;5003037;28;20210;-80
2024/01/11 11:15:51;;;;;;;58.40;32.20;;;;;;;;;;5033887;28;20210;-79
2024/01/11 11:18:18;;;;;;;56.37;31.60;;;;;;;;;;4999266;28;20196;-79
2024/01/11 11:20:45;;;;;;;58.30;31.27;;;;;;;;;;5002210;28;20222;-79
2024/01/11 11:23:14;;;;;;;58.00;32.57;;;;;;;;;;5002811;28;20225;-82
2024/01/11 11:25:42;;;;;;;59.17;30.77;;;;;;;;;;5003650;28;20183;-80
2024/01/11 11:28:09;;;;;;;54.20;29.47;;;;;;;;;;5034853;28;20654;-78
2024/01/11 11:30:41;;;;;;;53.93;28.77;;;;;;;;;;5017982;28;20647;-80
2024/01/11 11:33:19;;;;;;;54.57;30.57;;;;;;;;;;4996543;28;20693;-80
2024/01/11 11:35:46;;;;;;;59.53;32.97;;;;;;;;;;5005071;28;20214;-80
2024/01/11 11:38:20;;;;;;;55.70;30.43;;;;;;;;;;5011076;28;20731;-81
2024/01/11 11:40:48;;;;;;;55.17;30.50;;;;;;;;;;5008917;28;20186;-78
2024/01/11 11:43:16;;;;;;;57.87;32.00;;;;;;;;;;5002270;28;20234;-80
2024/01/11 11:45:42;;;;;;;54.57;31.03;;;;;;;;;;5027435;28;20220;-80
2024/01/11 11:48:28;;;;;;;58.63;32.40;;;;;;;;;;5002824;28;20200;-81
2024/01/11 11:51:07;;;;;;;56.33;30.80;;;;;;;;;;5002367;28;20183;-84
2024/01/11 11:53:36;;;;;;;60.00;31.53;;;;;;;;;;4986194;28;20210;-80
2024/01/11 11:56:03;;;;;;;57.40;32.17;;;;;;;;;;5004860;28;20211;-84
2024/01/11 11:58:30;;;;;;;55.87;30.57;;;;;;;;;;4997674;28;21924;-81
2024/01/11 12:00:57;;;;;;;59.27;31.83;;;;;;;;;;5024648;28;20208;-81
2024/01/11 12:03:37;;;;;;;54.73;30.13;;;;;;;;;;5002305;28;20207;-82
2024/01/11 12:06:04;;;;;;;53.80;29.50;;;;;;;;;;4987749;28;20185;-82
2024/01/11 12:08:31;;;;;;;54.57;30.13;;;;;;;;;;5017983;28;20183;-82
2024/01/11 12:10:57;;;;;;;55.00;30.87;;;;;;;;;;5009956;28;20195;-80
2024/01/11 12:13:24;;;;;;;56.40;31.77;;;;;;;;;;5006427;28;20206;-82
2024/01/11 12:15:50;;;;;;;56.07;30.47;;;;;;;;;;5028282;28;20254;-83
2024/01/11 12:18:17;;;;;;;52.93;28.40;;;;;;;;;;4996874;28;20202;-82
2024/01/11 12:20:43;;;;;;;51.13;30.37;;;;;;;;;;5019609;28;21446;-82
2024/01/11 12:23:09;;;;;;;51.50;30.27;;;;;;;;;;5007651;28;20268;-86
2024/01/11 12:25:36;;;;;;;54.00;29.77;;;;;;;;;;4976794;28;20237;-85
2024/01/11 12:28:02;;;;;;;48.43;28.60;;;;;;;;;;5014825;28;20210;-86
2024/01/11 12:30:32;;;;;;;49.73;29.33;;;;;;;;;;5015067;28;20861;-85
2024/01/11 12:33:01;;;;;;;48.70;27.60;;;;;;;;;;5006912;28;20240;-85
2024/01/11 12:35:30;;;;;;;49.10;29.07;;;;;;;;;;4997634;28;20226;-86
2024/01/11 12:37:59;;;;;;;51.97;31.00;;;;;;;;;;4991755;28;20529;-85
2024/01/11 12:40:27;;;;;;;48.97;28.73;;;;;;;;;;4983458;28;20261;-85
2024/01/11 12:42:53;;;;;;;46.20;28.33;;;;;;;;;;5029934;28;20206;-86
2024/01/11 12:45:20;;;;;;;46.03;27.73;;;;;;;;;;4984582;28;20197;-85
2024/01/11 12:47:46;;;;;;;47.70;29.30;;;;;;;;;;5003661;28;20600;-85
2024/01/11 12:50:12;;;;;;;46.87;28.00;;;;;;;;;;5006726;28;20281;-82
2024/01/11 12:52:39;;;;;;;47.43;27.67;;;;;;;;;;5007545;28;20650;-86
2024/01/11 12:55:05;;;;;;;49.60;28.47;;;;;;;;;;5010070;28;20195;-86
2024/01/11 12:57:33;;;;;;;45.90;28.80;;;;;;;;;;4984079;28;20610;-86
2024/01/11 13:00:19;;;;;;;49.53;29.50;;;;;;;;;;5004214;28;20199;-85
2024/01/11 13:02:47;;;;;;;48.47;30.03;;;;;;;;;;5003215;28;20194;-86
2024/01/11 13:05:14;;;;;;;47.03;29.43;;;;;;;;;;4972634;28;20202;-85
2024/01/11 13:07:40;;;;;;;43.83;26.30;;;;;;;;;;5017013;28;20202;-85
2024/01/11 13:10:07;;;;;;;44.60;26.83;;;;;;;;;;5027829;28;20533;-77
2024/01/11 13:12:33;;;;;;;43.87;27.27;;;;;;;;;;4997809;28;20747;-78
2024/01/11 13:14:59;;;;;;;47.87;29.17;;;;;;;;;;4997382;28;20263;-78
2024/01/11 13:17:27;;;;;;;45.80;29.37;;;;;;;;;;5020441;28;20278;-78
2024/01/11 13:19:53;;;;;;;42.80;27.33;;;;;;;;;;5004507;28;20181;-74
2024/01/11 13:22:19;;;;;;;44.30;26.83;;;;;;;;;;5007973;28;20551;-76
2024/01/11 13:24:45;;;;;;;47.50;27.03;;;;;;;;;;5030792;28;20692;-76
2024/01/11 13:27:12;;;;;;;46.30;27.93;;;;;;;;;;5006338;28;20187;-79
2024/01/11 13:29:38;;;;;;;42.53;25.90;;;;;;;;;;5010113;28;20251;-78
2024/01/11 13:32:04;;;;;;;43.57;27.17;;;;;;;;;;5010039;28;20183;-76
2024/01/11 13:34:30;;;;;;;43.73;25.17;;;;;;;;;;4981691;28;22419;-77
2024/01/11 13:36:59;;;;;;;41.70;25.90;;;;;;;;;;5032852;28;20314;-78
2024/01/11 13:39:25;;;;;;;41.27;25.83;;;;;;;;;;5001091;28;20190;-78
2024/01/11 13:41:51;;;;;;;45.80;27.37;;;;;;;;;;5003929;28;20573;-78
2024/01/11 13:44:18;;;;;;;41.43;25.87;;;;;;;;;;5006947;28;20202;-78
2024/01/11 13:46:45;;;;;;;48.00;27.57;;;;;;;;;;5008205;28;20268;-78
2024/01/11 13:49:13;;;;;;;43.73;26.53;;;;;;;;;;5007891;28;20202;-77
2024/01/11 13:51:39;;;;;;;44.80;26.83;;;;;;;;;;5028326;28;20191;-78
2024/01/11 13:54:06;;;;;;;42.00;25.03;;;;;;;;;;5007809;28;20344;-78
2024/01/11 13:56:32;;;;;;;41.83;24.87;;;;;;;;;;5007077;28;20203;-78
2024/01/11 13:58:58;;;;;;;39.10;23.57;;;;;;;;;;5006235;28;20189;-78
2024/01/11 14:01:24;;;;;;;39.30;23.57;;;;;;;;;;5012344;28;20257;-78
2024/01/11 14:03:50;;;;;;;40.60;24.60;;;;;;;;;;5042596;28;20229;-78
2024/01/11 14:06:17;;;;;;;41.40;23.90;;;;;;;;;;5010777;28;20737;-78
2024/01/11 14:08:43;;;;;;;42.63;25.37;;;;;;;;;;4989489;28;20187;-80
2024/01/11 14:11:09;;;;;;;43.83;26.00;;;;;;;;;;5013596;28;20218;-80
2024/01/11 14:13:35;;;;;;;41.93;25.70;;;;;;;;;;4987466;28;20207;-78